AirNav   Everest Fuels
 
 1555 users online  

7TA0 Field's Field Airport
Tomball, Texas, USA

GOING TO TOMBALL?


FAA INFORMATION EFFECTIVE 07 OCTOBER 2021

Location

FAA Identifier: 7TA0
Lat/Long: 30-05-31.7840N 095-39-05.8010W
30-05.529733N 095-39.096683W
30.0921622,-95.6516114
(estimated)
Elevation: 198 ft. / 60 m (estimated)
Variation: 06E (1985)
From city: 3 miles E of TOMBALL, TX
Time zone: UTC -5 (UTC -6 during Standard Time)
Zip code: 77375

Airport Operations

Airport use: CLOSED INDEFINITELY, PERSONAL USE.
Activation date: 06/1989
Control tower: no
ARTCC: HOUSTON CENTER
FSS: MONTGOMERY COUNTY FLIGHT SERVICE STATION
Attendance: UNATNDD
Segmented circle: no

Airport Communications

WX ASOS at DWH (5 nm E): PHONE 281-251-7853
WX ASOS at IAH (17 nm E): PHONE 281-443-6397
WX ASOS at CXO (20 nm NE): 118.325 (936-760-4237)

Nearby radio navigation aids

VOR radial/distance  VOR name  Freq  Var
IAHr292/17.8HUMBLE VORTAC116.6005E
TNVr111/24.2NAVASOTA VOR/DME115.9008E

 
NDB name  Hdg/Dist  Freq  Var  ID
HUNTSVILLE179/39.030806EUTS ..- - ...

Airport Services

Runway Information

Runway 18/36

Dimensions: 2200 x 50 ft. / 671 x 15 m
Surface: turf
RUNWAY 18  RUNWAY 36
Traffic pattern: rightleft
Obstructions: 30 ft. pline, 50 ft. from runway30 ft. trees, 20 ft. from runway

Airport Ownership and Management from official FAA records

Ownership: Privately-owned
Owner: MELVIN & STELLA FIELD
15110 FM 2920
TOMBALL, TX 77375
Phone 713-351-0108
Manager: STELLA R. FIELD
15110 FM 2920
TOMBALL, TX 77375
Phone 713-351-0108

Airport Operational Statistics

Aircraft based on the field: 1
Single engine airplanes: 1
    

Additional Remarks

FOR CD CTC HOUSTON ARTCC AT 281-230-5622.
(ARPT STATUS) ARPT CLSD INDEFLY.

Instrument Procedures

There are no published instrument procedures at 7TA0.

Some nearby airports with instrument procedures:

KDWH - David Wayne Hooks Memorial Airport (5 nm E)
KIWS - West Houston Airport (16 nm S)
KIAH - George Bush Intercontinental/Houston Airport (17 nm E)
KCXO - Conroe-North Houston Regional Airport (20 nm NE)
KTME - Houston Executive Airport (21 nm SW)
 
Loc | Ops | Rwys | IFR | FBO | Links
Com | Nav | Svcs | Stats | Notes
Area around 7TA0 (Field's Field Airport)
 
Road maps at: MapQuest Bing Google
 
Aerial photo
No photo
 
Sectional chart

 
Airport distance calculator
Flying to Field's Field Airport? Find the distance to fly.

From to 7TA0

Sunrise and sunset
Times for 20-Oct-2021
 Local
(UTC-5)
 Zulu
(UTC)
Morning civil twilight07:0512:05
Sunrise07:2912:29
Sunset18:4623:46
Evening civil twilight19:1000:10

Current date and time
Zulu (UTC)  20-Oct-2021 19:12:03
Local (UTC-5)  20-Oct-2021 14:12:03
 
METAR
KDWH 
5nm E 
201853Z VRB05KT 10SM FEW034 30/21 A3007 RMK AO2 SLP181 T03000211
KIAH 
16nm E 
201853Z 11005KT 10SM SCT028 BKN250 29/21 A3007 RMK AO2 SLP182 T02940206
KCXO 
20nm NE 
201853Z 09005KT 10SM BKN031 BKN039 28/21 A3008 RMK AO2 SLP183 T02780211
TAF
KIAH 
16nm E 
201731Z 2018/2124 15005KT P6SM FEW020 BKN250 FM210600 VRB03KT 6SM BR FEW010 BKN250 FM211000 00000KT 3SM BR BKN010 FM211400 VRB03KT P6SM FEW035 FM211600 10005KT P6SM SCT035 SCT250
KCXO 
20nm NE 
201731Z 2018/2118 13005KT P6SM SCT025 SCT250 FM210200 VRB03KT P6SM SCT025 BKN250 FM210900 00000KT 4SM BR SCT008 BKN250 FM211100 00000KT 2SM BR OVC008 FM211400 15004KT P6SM SCT008 SCT250
NOTAMs
Click for the latest NOTAMs
NOTAMs are issued by the DoD/FAA and will open in a separate window not controlled by AirNav.

 

 
 

Would you like to see your business listed on this page?

 If your business provides an interesting product or service to pilots, flight crews, aircraft, or users of the Field's Field Airport, you should consider listing it here.  To start the listing process, click on the button below
 
Add a business
 

Other Pages about Field's Field Airport

Update a link
 
Copyright © AirNav, LLC. All rights reserved. Privacy Policy  Contact